sensor_id;sensor_type;location;lat;lon;timestamp;pressure;altitude;pressure_sealevel;temperature;humidity
50672;BME280;46021;55.882;37.654;2023-07-02T00:02:24;97804.03;;;16.65;73.36
50672;BME280;46021;55.882;37.654;2023-07-02T00:04:52;97800.19;;;16.69;72.46
50672;BME280;46021;55.882;37.654;2023-07-02T00:07:19;97813.59;;;16.66;72.76
50672;BME280;46021;55.882;37.654;2023-07-02T00:09:47;97803.78;;;16.68;73.32
50672;BME280;46021;55.882;37.654;2023-07-02T00:12:15;97801.03;;;16.70;73.12
50672;BME280;46021;55.882;37.654;2023-07-02T00:14:42;97802.13;;;16.67;73.59
50672;BME280;46021;55.882;37.654;2023-07-02T00:17:10;97803.78;;;16.68;72.89
50672;BME280;46021;55.882;37.654;2023-07-02T00:19:38;97808.09;;;16.69;73.06
50672;BME280;46021;55.882;37.654;2023-07-02T00:22:07;97799.63;;;16.66;73.10
50672;BME280;46021;55.882;37.654;2023-07-02T00:24:35;97807.91;;;16.61;72.42
50672;BME280;46021;55.882;37.654;2023-07-02T00:27:04;97799.03;;;16.52;72.85
50672;BME280;46021;55.882;37.654;2023-07-02T00:29:31;97811.31;;;16.52;73.38
50672;BME280;46021;55.882;37.654;2023-07-02T00:31:58;97808.53;;;16.44;73.33
50672;BME280;46021;55.882;37.654;2023-07-02T00:34:25;97816.84;;;16.39;73.00
50672;BME280;46021;55.882;37.654;2023-07-02T00:36:53;97811.94;;;16.34;73.89
50672;BME280;46021;55.882;37.654;2023-07-02T00:39:20;97815.81;;;16.30;73.61
50672;BME280;46021;55.882;37.654;2023-07-02T00:41:47;97814.66;;;16.23;74.29
50672;BME280;46021;55.882;37.654;2023-07-02T00:44:16;97829.03;;;16.19;74.80
50672;BME280;46021;55.882;37.654;2023-07-02T00:46:44;97821.41;;;16.16;74.54
50672;BME280;46021;55.882;37.654;2023-07-02T00:49:11;97814.59;;;16.13;74.83
50672;BME280;46021;55.882;37.654;2023-07-02T00:51:38;97820.44;;;16.17;75.54
50672;BME280;46021;55.882;37.654;2023-07-02T00:54:06;97828.72;;;16.12;74.28
50672;BME280;46021;55.882;37.654;2023-07-02T00:56:33;97823.16;;;16.06;75.62
50672;BME280;46021;55.882;37.654;2023-07-02T00:59:01;97818.13;;;16.03;75.79
50672;BME280;46021;55.882;37.654;2023-07-02T01:01:29;97818.53;;;15.98;75.30
50672;BME280;46021;55.882;37.654;2023-07-02T01:04:00;97829.63;;;16.02;75.89
50672;BME280;46021;55.882;37.654;2023-07-02T01:06:31;97829.03;;;15.98;76.11
50672;BME280;46021;55.882;37.654;2023-07-02T01:08:59;97834.19;;;16.00;75.26
50672;BME280;46021;55.882;37.654;2023-07-02T01:11:30;97832.63;;;15.97;75.66
50672;BME280;46021;55.882;37.654;2023-07-02T01:14:02;97832.78;;;15.95;76.52
50672;BME280;46021;55.882;37.654;2023-07-02T01:16:32;97830.28;;;15.94;76.32
50672;BME280;46021;55.882;37.654;2023-07-02T01:19:04;97827.88;;;15.91;76.31
50672;BME280;46021;55.882;37.654;2023-07-02T01:21:33;97826.09;;;15.91;76.32
50672;BME280;46021;55.882;37.654;2023-07-02T01:24:01;97821.09;;;15.88;76.38
50672;BME280;46021;55.882;37.654;2023-07-02T01:26:29;97823.28;;;15.83;76.43
50672;BME280;46021;55.882;37.654;2023-07-02T01:29:01;97828.28;;;15.86;77.08
50672;BME280;46021;55.882;37.654;2023-07-02T01:31:38;97835.31;;;15.86;76.84
50672;BME280;46021;55.882;37.654;2023-07-02T01:34:05;97836.41;;;15.83;77.41
50672;BME280;46021;55.882;37.654;2023-07-02T01:36:35;97835.72;;;15.81;77.37
50672;BME280;46021;55.882;37.654;2023-07-02T01:39:02;97843.34;;;15.84;77.16
50672;BME280;46021;55.882;37.654;2023-07-02T01:41:33;97841.66;;;15.83;77.04
50672;BME280;46021;55.882;37.654;2023-07-02T01:44:00;97840.97;;;15.81;77.55
50672;BME280;46021;55.882;37.654;2023-07-02T01:46:27;97851.47;;;15.81;77.79
50672;BME280;46021;55.882;37.654;2023-07-02T01:48:54;97848.13;;;15.79;77.91
50672;BME280;46021;55.882;37.654;2023-07-02T01:51:21;97837.63;;;15.79;77.76
50672;BME280;46021;55.882;37.654;2023-07-02T01:53:50;97834.31;;;15.77;78.61
50672;BME280;46021;55.882;37.654;2023-07-02T01:56:17;97840.25;;;15.79;77.71
50672;BME280;46021;55.882;37.654;2023-07-02T01:58:44;97829.88;;;15.77;78.59
50672;BME280;46021;55.882;37.654;2023-07-02T02:01:11;97833.78;;;15.83;77.99
50672;BME280;46021;55.882;37.654;2023-07-02T02:03:38;97846.88;;;15.94;78.62
50672;BME280;46021;55.882;37.654;2023-07-02T02:06:06;97852.31;;;16.03;77.63
50672;BME280;46021;55.882;37.654;2023-07-02T02:08:33;97849.19;;;16.09;77.83
50672;BME280;46021;55.882;37.654;2023-07-02T02:11:01;97853.91;;;16.15;77.60
50672;BME280;46021;55.882;37.654;2023-07-02T02:13:28;97861.41;;;16.20;77.76
50672;BME280;46021;55.882;37.654;2023-07-02T02:15:55;97855.06;;;16.22;77.94
50672;BME280;46021;55.882;37.654;2023-07-02T02:18:23;97847.88;;;16.24;77.20
50672;BME280;46021;55.882;37.654;2023-07-02T02:21:11;97850.94;;;16.29;77.48
50672;BME280;46021;55.882;37.654;2023-07-02T02:23:38;97846.69;;;16.38;76.71
50672;BME280;46021;55.882;37.654;2023-07-02T02:26:07;97853.00;;;16.47;76.83
50672;BME280;46021;55.882;37.654;2023-07-02T02:28:34;97844.69;;;16.51;76.47
50672;BME280;46021;55.882;37.654;2023-07-02T02:31:02;97841.94;;;16.53;76.48
50672;BME280;46021;55.882;37.654;2023-07-02T02:33:30;97841.28;;;16.61;75.81
50672;BME280;46021;55.882;37.654;2023-07-02T02:35:57;97845.72;;;16.60;76.75
50672;BME280;46021;55.882;37.654;2023-07-02T02:38:24;97843.78;;;16.62;76.27
50672;BME280;46021;55.882;37.654;2023-07-02T02:40:51;97839.75;;;16.58;76.70
50672;BME280;46021;55.882;37.654;2023-07-02T02:43:21;97849.72;;;16.64;76.55
50672;BME280;46021;55.882;37.654;2023-07-02T02:45:50;97851.13;;;16.68;76.18
50672;BME280;46021;55.882;37.654;2023-07-02T02:48:17;97850.59;;;16.74;76.51
50672;BME280;46021;55.882;37.654;2023-07-02T02:50:45;97856.31;;;16.80;75.71
50672;BME280;46021;55.882;37.654;2023-07-02T02:53:12;97849.56;;;16.87;76.12
50672;BME280;46021;55.882;37.654;2023-07-02T02:55:39;97847.06;;;16.85;75.59
50672;BME280;46021;55.882;37.654;2023-07-02T02:58:06;97850.09;;;16.81;76.15
50672;BME280;46021;55.882;37.654;2023-07-02T03:00:35;97868.81;;;16.87;75.82
50672;BME280;46021;55.882;37.654;2023-07-02T03:03:02;97858.75;;;16.92;75.82
50672;BME280;46021;55.882;37.654;2023-07-02T03:05:29;97870.69;;;17.16;75.75
50672;BME280;46021;55.882;37.654;2023-07-02T03:07:57;97865.03;;;17.21;74.66
50672;BME280;46021;55.882;37.654;2023-07-02T03:10:24;97866.59;;;17.33;75.22
50672;BME280;46021;55.882;37.654;2023-07-02T03:12:51;97877.13;;;17.33;74.06
50672;BME280;46021;55.882;37.654;2023-07-02T03:15:18;97877.81;;;17.35;73.42
50672;BME280;46021;55.882;37.654;2023-07-02T03:17:46;97883.91;;;17.26;73.09
50672;BME280;46021;55.882;37.654;2023-07-02T03:20:13;97889.75;;;16.89;74.75
50672;BME280;46021;55.882;37.654;2023-07-02T03:22:41;97892.19;;;16.81;74.36
50672;BME280;46021;55.882;37.654;2023-07-02T03:25:09;97890.47;;;16.70;74.17
50672;BME280;46021;55.882;37.654;2023-07-02T03:27:36;97888.13;;;16.46;76.01
50672;BME280;46021;55.882;37.654;2023-07-02T03:30:04;97899.75;;;16.43;75.47
50672;BME280;46021;55.882;37.654;2023-07-02T03:32:33;97903.84;;;16.36;75.91
50672;BME280;46021;55.882;37.654;2023-07-02T03:35:02;97900.41;;;16.35;75.71
50672;BME280;46021;55.882;37.654;2023-07-02T03:37:31;97898.00;;;16.32;75.79
50672;BME280;46021;55.882;37.654;2023-07-02T03:39:58;97899.06;;;16.20;76.12
50672;BME280;46021;55.882;37.654;2023-07-02T03:42:25;97901.81;;;16.18;76.35
50672;BME280;46021;55.882;37.654;2023-07-02T03:44:52;97898.19;;;16.20;76.73
50672;BME280;46021;55.882;37.654;2023-07-02T03:47:19;97911.47;;;16.18;76.56
50672;BME280;46021;55.882;37.654;2023-07-02T03:49:47;97913.34;;;16.06;77.54
50672;BME280;46021;55.882;37.654;2023-07-02T03:52:16;97911.75;;;16.15;76.91
50672;BME280;46021;55.882;37.654;2023-07-02T03:54:43;97917.88;;;16.25;77.11
50672;BME280;46021;55.882;37.654;2023-07-02T03:57:10;97910.22;;;16.33;76.64
50672;BME280;46021;55.882;37.654;2023-07-02T03:59:37;97916.09;;;16.47;75.76
50672;BME280;46021;55.882;37.654;2023-07-02T04:02:04;97914.34;;;16.57;76.13
50672;BME280;46021;55.882;37.654;2023-07-02T04:04:31;97908.06;;;16.69;74.98
50672;BME280;46021;55.882;37.654;2023-07-02T04:06:58;97915.94;;;16.90;75.14
50672;BME280;46021;55.882;37.654;2023-07-02T04:09:27;97907.81;;;17.03;75.06
50672;BME280;46021;55.882;37.654;2023-07-02T04:11:54;97913.41;;;17.20;74.65
50672;BME280;46021;55.882;37.654;2023-07-02T04:14:21;97915.44;;;17.57;74.80
50672;BME280;46021;55.882;37.654;2023-07-02T04:16:48;97911.88;;;17.87;72.99
50672;BME280;46021;55.882;37.654;2023-07-02T04:19:15;97913.66;;;18.25;73.38
50672;BME280;46021;55.882;37.654;2023-07-02T04:21:42;97910.13;;;18.54;71.48
50672;BME280;46021;55.882;37.654;2023-07-02T04:24:09;97915.22;;;18.85;70.33
50672;BME280;46021;55.882;37.654;2023-07-02T04:26:38;97920.28;;;19.06;68.55
50672;BME280;46021;55.882;37.654;2023-07-02T04:29:08;97919.81;;;18.83;67.88
50672;BME280;46021;55.882;37.654;2023-07-02T04:31:35;97926.69;;;18.94;68.39
50672;BME280;46021;55.882;37.654;2023-07-02T04:34:03;97931.88;;;19.23;68.28
50672;BME280;46021;55.882;37.654;2023-07-02T04:36:31;97923.09;;;19.50;67.84
50672;BME280;46021;55.882;37.654;2023-07-02T04:38:58;97918.66;;;19.68;67.29
50672;BME280;46021;55.882;37.654;2023-07-02T04:41:26;97930.47;;;19.74;64.80
50672;BME280;46021;55.882;37.654;2023-07-02T04:43:55;97917.34;;;20.00;65.21
50672;BME280;46021;55.882;37.654;2023-07-02T04:46:22;97920.47;;;20.40;65.44
50672;BME280;46021;55.882;37.654;2023-07-02T04:48:49;97917.75;;;20.32;63.45
50672;BME280;46021;55.882;37.654;2023-07-02T04:51:16;97920.06;;;20.79;64.35
50672;BME280;46021;55.882;37.654;2023-07-02T04:53:43;97922.47;;;21.33;63.53
50672;BME280;46021;55.882;37.654;2023-07-02T04:56:10;97920.47;;;22.02;61.64
50672;BME280;46021;55.882;37.654;2023-07-02T04:58:37;97917.50;;;22.54;59.81
50672;BME280;46021;55.882;37.654;2023-07-02T05:01:06;97924.41;;;23.05;58.67
50672;BME280;46021;55.882;37.654;2023-07-02T05:03:33;97929.91;;;23.66;58.05
50672;BME280;46021;55.882;37.654;2023-07-02T05:06:00;97925.19;;;24.07;56.71
50672;BME280;46021;55.882;37.654;2023-07-02T05:08:27;97923.25;;;24.39;55.53
50672;BME280;46021;55.882;37.654;2023-07-02T05:10:55;97920.28;;;24.34;54.26
50672;BME280;46021;55.882;37.654;2023-07-02T05:13:22;97926.66;;;24.48;53.84
50672;BME280;46021;55.882;37.654;2023-07-02T05:15:49;97912.84;;;24.52;52.93
50672;BME280;46021;55.882;37.654;2023-07-02T05:18:17;97916.50;;;24.51;50.89
50672;BME280;46021;55.882;37.654;2023-07-02T05:20:44;97910.00;;;24.84;52.10
50672;BME280;46021;55.882;37.654;2023-07-02T05:23:11;97917.19;;;24.98;51.11
50672;BME280;46021;55.882;37.654;2023-07-02T05:25:38;97915.34;;;24.69;49.52
50672;BME280;46021;55.882;37.654;2023-07-02T05:28:05;97927.00;;;24.30;50.74
50672;BME280;46021;55.882;37.654;2023-07-02T05:30:32;97927.91;;;23.99;49.77
50672;BME280;46021;55.882;37.654;2023-07-02T05:32:59;97921.28;;;23.32;51.62
50672;BME280;46021;55.882;37.654;2023-07-02T05:35:27;97923.66;;;23.19;52.50
50672;BME280;46021;55.882;37.654;2023-07-02T05:37:54;97915.84;;;23.26;52.64
50672;BME280;46021;55.882;37.654;2023-07-02T05:40:21;97920.88;;;23.52;52.71
50672;BME280;46021;55.882;37.654;2023-07-02T05:42:48;97926.72;;;23.79;51.53
50672;BME280;46021;55.882;37.654;2023-07-02T05:45:15;97927.03;;;24.45;51.26
50672;BME280;46021;55.882;37.654;2023-07-02T05:47:42;97923.78;;;25.02;50.43
50672;BME280;46021;55.882;37.654;2023-07-02T05:50:09;97928.22;;;25.25;49.11
50672;BME280;46021;55.882;37.654;2023-07-02T05:52:37;97926.16;;;25.78;47.66
50672;BME280;46021;55.882;37.654;2023-07-02T05:55:05;97929.59;;;25.72;47.58
50672;BME280;46021;55.882;37.654;2023-07-02T05:57:36;97925.06;;;25.51;47.82
50672;BME280;46021;55.882;37.654;2023-07-02T06:00:03;97931.53;;;25.27;47.37
50672;BME280;46021;55.882;37.654;2023-07-02T06:02:38;97935.59;;;25.59;47.53
50672;BME280;46021;55.882;37.654;2023-07-02T06:05:05;97932.44;;;25.71;46.82
50672;BME280;46021;55.882;37.654;2023-07-02T06:07:33;97937.63;;;25.57;47.26
50672;BME280;46021;55.882;37.654;2023-07-02T06:10:01;97935.03;;;25.79;45.24
50672;BME280;46021;55.882;37.654;2023-07-02T06:12:29;97942.75;;;25.74;46.22
50672;BME280;46021;55.882;37.654;2023-07-02T06:14:56;97937.88;;;25.11;46.27
50672;BME280;46021;55.882;37.654;2023-07-02T06:17:23;97926.91;;;24.61;46.39
50672;BME280;46021;55.882;37.654;2023-07-02T06:19:50;97936.16;;;24.04;47.11
50672;BME280;46021;55.882;37.654;2023-07-02T06:22:18;97937.78;;;23.59;47.84
50672;BME280;46021;55.882;37.654;2023-07-02T06:24:45;97929.88;;;23.43;48.43
50672;BME280;46021;55.882;37.654;2023-07-02T06:27:13;97934.22;;;23.35;48.51
50672;BME280;46021;55.882;37.654;2023-07-02T06:29:40;97933.78;;;23.55;48.58
50672;BME280;46021;55.882;37.654;2023-07-02T06:32:07;97936.94;;;23.27;48.59
50672;BME280;46021;55.882;37.654;2023-07-02T06:34:34;97945.53;;;22.82;48.94
50672;BME280;46021;55.882;37.654;2023-07-02T06:37:02;97934.91;;;22.65;49.05
50672;BME280;46021;55.882;37.654;2023-07-02T06:39:29;97936.94;;;22.30;50.02
50672;BME280;46021;55.882;37.654;2023-07-02T06:41:56;97941.75;;;22.27;49.93
50672;BME280;46021;55.882;37.654;2023-07-02T06:44:29;97933.09;;;22.08;50.30
50672;BME280;46021;55.882;37.654;2023-07-02T06:46:57;97938.69;;;21.89;50.77
50672;BME280;46021;55.882;37.654;2023-07-02T06:49:24;97942.00;;;21.83;51.53
50672;BME280;46021;55.882;37.654;2023-07-02T06:51:51;97938.19;;;21.77;52.14
50672;BME280;46021;55.882;37.654;2023-07-02T06:54:18;97932.72;;;21.87;51.96
50672;BME280;46021;55.882;37.654;2023-07-02T06:56:45;97938.84;;;21.79;52.21
50672;BME280;46021;55.882;37.654;2023-07-02T06:59:12;97943.38;;;21.95;51.64
50672;BME280;46021;55.882;37.654;2023-07-02T07:01:46;97937.69;;;21.65;51.68
50672;BME280;46021;55.882;37.654;2023-07-02T07:04:13;97941.44;;;21.54;52.03
50672;BME280;46021;55.882;37.654;2023-07-02T07:06:41;97941.16;;;21.66;51.25
50672;BME280;46021;55.882;37.654;2023-07-02T07:09:08;97945.13;;;21.70;50.00
50672;BME280;46021;55.882;37.654;2023-07-02T07:11:35;97938.38;;;21.84;48.54
50672;BME280;46021;55.882;37.654;2023-07-02T07:14:02;97949.81;;;21.92;47.65
50672;BME280;46021;55.882;37.654;2023-07-02T07:16:29;97951.13;;;21.80;47.69
50672;BME280;46021;55.882;37.654;2023-07-02T07:18:58;97949.00;;;21.84;47.61
50672;BME280;46021;55.882;37.654;2023-07-02T07:21:25;97949.16;;;21.82;48.73
50672;BME280;46021;55.882;37.654;2023-07-02T07:23:52;97950.28;;;21.79;48.76
50672;BME280;46021;55.882;37.654;2023-07-02T07:26:19;97948.78;;;21.69;49.35
50672;BME280;46021;55.882;37.654;2023-07-02T07:28:46;97954.41;;;21.66;49.41
50672;BME280;46021;55.882;37.654;2023-07-02T07:31:14;97948.22;;;21.49;49.48
50672;BME280;46021;55.882;37.654;2023-07-02T07:33:41;97956.41;;;21.29;50.24
50672;BME280;46021;55.882;37.654;2023-07-02T07:36:10;97963.97;;;21.16;51.33
50672;BME280;46021;55.882;37.654;2023-07-02T07:38:38;97963.38;;;20.96;52.83
50672;BME280;46021;55.882;37.654;2023-07-02T07:41:05;97965.56;;;21.00;53.50
50672;BME280;46021;55.882;37.654;2023-07-02T07:43:33;97969.22;;;21.08;53.33
50672;BME280;46021;55.882;37.654;2023-07-02T07:46:00;97974.25;;;21.19;52.78
50672;BME280;46021;55.882;37.654;2023-07-02T07:48:27;97973.81;;;20.97;53.28
50672;BME280;46021;55.882;37.654;2023-07-02T07:50:54;97964.75;;;20.74;53.44
50672;BME280;46021;55.882;37.654;2023-07-02T07:53:23;97971.31;;;20.70;54.17
50672;BME280;46021;55.882;37.654;2023-07-02T07:55:50;97973.91;;;20.61;53.99
50672;BME280;46021;55.882;37.654;2023-07-02T07:58:17;97964.38;;;20.69;53.67
50672;BME280;46021;55.882;37.654;2023-07-02T08:00:44;97965.41;;;20.76;54.09
50672;BME280;46021;55.882;37.654;2023-07-02T08:03:11;97961.72;;;20.95;52.80
50672;BME280;46021;55.882;37.654;2023-07-02T08:05:38;97958.03;;;21.22;52.82
50672;BME280;46021;55.882;37.654;2023-07-02T08:08:06;97956.13;;;21.40;51.42
50672;BME280;46021;55.882;37.654;2023-07-02T08:10:35;97949.22;;;21.48;51.42
50672;BME280;46021;55.882;37.654;2023-07-02T08:13:02;97959.03;;;21.64;51.62
50672;BME280;46021;55.882;37.654;2023-07-02T08:15:29;97956.94;;;21.84;51.19
50672;BME280;46021;55.882;37.654;2023-07-02T08:17:56;97961.97;;;22.19;50.26
50672;BME280;46021;55.882;37.654;2023-07-02T08:20:24;97964.31;;;22.31;48.68
50672;BME280;46021;55.882;37.654;2023-07-02T08:22:51;97972.78;;;22.43;47.99
50672;BME280;46021;55.882;37.654;2023-07-02T08:25:19;97964.31;;;22.47;47.76
50672;BME280;46021;55.882;37.654;2023-07-02T08:27:48;97961.66;;;22.39;47.89
50672;BME280;46021;55.882;37.654;2023-07-02T08:30:17;97968.13;;;22.53;48.11
50672;BME280;46021;55.882;37.654;2023-07-02T08:32:45;97981.91;;;22.48;49.10
50672;BME280;46021;55.882;37.654;2023-07-02T08:35:12;97976.19;;;22.02;48.13
50672;BME280;46021;55.882;37.654;2023-07-02T08:37:39;97980.88;;;22.08;48.39
50672;BME280;46021;55.882;37.654;2023-07-02T08:40:15;97981.78;;;21.74;48.90
50672;BME280;46021;55.882;37.654;2023-07-02T08:45:13;97979.81;;;21.85;49.00
50672;BME280;46021;55.882;37.654;2023-07-02T08:47:41;97978.31;;;21.82;48.80
50672;BME280;46021;55.882;37.654;2023-07-02T08:50:08;97980.00;;;21.91;48.04
50672;BME280;46021;55.882;37.654;2023-07-02T08:52:36;97980.41;;;21.62;47.92
50672;BME280;46021;55.882;37.654;2023-07-02T08:55:03;97978.47;;;21.72;48.13
50672;BME280;46021;55.882;37.654;2023-07-02T08:57:31;97974.88;;;21.98;48.37
50672;BME280;46021;55.882;37.654;2023-07-02T08:59:58;97969.63;;;22.31;48.31
50672;BME280;46021;55.882;37.654;2023-07-02T09:02:33;97970.22;;;23.07;48.04
50672;BME280;46021;55.882;37.654;2023-07-02T09:05:00;97969.97;;;23.72;47.03
50672;BME280;46021;55.882;37.654;2023-07-02T09:07:31;97967.41;;;24.57;46.58
50672;BME280;46021;55.882;37.654;2023-07-02T09:09:58;97967.06;;;25.79;45.77
50672;BME280;46021;55.882;37.654;2023-07-02T09:12:25;97970.69;;;26.57;43.03
50672;BME280;46021;55.882;37.654;2023-07-02T09:14:56;97970.78;;;26.64;39.58
50672;BME280;46021;55.882;37.654;2023-07-02T09:17:28;97968.22;;;27.12;40.33
50672;BME280;46021;55.882;37.654;2023-07-02T09:19:58;97968.66;;;28.06;39.30
50672;BME280;46021;55.882;37.654;2023-07-02T09:22:26;97959.44;;;28.82;37.59
50672;BME280;46021;55.882;37.654;2023-07-02T09:24:54;97974.44;;;29.81;36.77
50672;BME280;46021;55.882;37.654;2023-07-02T09:27:33;97964.53;;;30.13;33.84
50672;BME280;46021;55.882;37.654;2023-07-02T09:30:06;97968.09;;;29.62;34.10
50672;BME280;46021;55.882;37.654;2023-07-02T09:32:34;97967.16;;;29.88;34.70
50672;BME280;46021;55.882;37.654;2023-07-02T09:35:03;97969.47;;;29.26;33.67
50672;BME280;46021;55.882;37.654;2023-07-02T09:37:31;97964.16;;;27.23;35.00
50672;BME280;46021;55.882;37.654;2023-07-02T09:39:59;97974.78;;;25.74;36.64
50672;BME280;46021;55.882;37.654;2023-07-02T09:42:30;97973.06;;;24.77;37.64
50672;BME280;46021;55.882;37.654;2023-07-02T09:44:58;97949.13;;;24.30;38.22
50672;BME280;46021;55.882;37.654;2023-07-02T09:47:29;97972.34;;;24.22;39.74
50672;BME280;46021;55.882;37.654;2023-07-02T09:50:01;97966.44;;;24.73;39.55
50672;BME280;46021;55.882;37.654;2023-07-02T09:52:33;97960.81;;;25.72;38.64
50672;BME280;46021;55.882;37.654;2023-07-02T09:55:01;97962.78;;;26.99;38.29
50672;BME280;46021;55.882;37.654;2023-07-02T09:57:31;97959.97;;;27.90;35.82
50672;BME280;46021;55.882;37.654;2023-07-02T09:59:59;97964.97;;;28.33;34.65
50672;BME280;46021;55.882;37.654;2023-07-02T10:02:29;97964.25;;;27.85;33.90
50672;BME280;46021;55.882;37.654;2023-07-02T10:04:56;97961.31;;;27.73;34.21
50672;BME280;46021;55.882;37.654;2023-07-02T10:15:26;97965.69;;;29.41;30.44
50672;BME280;46021;55.882;37.654;2023-07-02T10:17:57;97979.78;;;28.16;31.37
50672;BME280;46021;55.882;37.654;2023-07-02T10:20:32;97970.25;;;27.03;32.72
50672;BME280;46021;55.882;37.654;2023-07-02T10:23:00;97972.16;;;26.81;34.18
50672;BME280;46021;55.882;37.654;2023-07-02T10:25:29;97971.97;;;27.59;33.88
50672;BME280;46021;55.882;37.654;2023-07-02T10:27:58;97972.47;;;27.83;32.20
50672;BME280;46021;55.882;37.654;2023-07-02T10:30:33;97974.84;;;28.13;30.57
50672;BME280;46021;55.882;37.654;2023-07-02T10:35:32;97964.13;;;29.13;29.85
50672;BME280;46021;55.882;37.654;2023-07-02T10:38:00;97957.97;;;29.64;30.25
50672;BME280;46021;55.882;37.654;2023-07-02T10:40:29;97973.59;;;29.09;29.86
50672;BME280;46021;55.882;37.654;2023-07-02T10:42:58;97976.94;;;28.97;30.01
50672;BME280;46021;55.882;37.654;2023-07-02T10:45:31;97972.06;;;29.53;29.71
50672;BME280;46021;55.882;37.654;2023-07-02T10:47:58;97968.13;;;29.55;30.21
50672;BME280;46021;55.882;37.654;2023-07-02T10:50:26;97962.81;;;29.42;30.20
50672;BME280;46021;55.882;37.654;2023-07-02T10:52:53;97966.31;;;29.95;29.97
50672;BME280;46021;55.882;37.654;2023-07-02T10:55:22;97968.13;;;30.83;30.07
50672;BME280;46021;55.882;37.654;2023-07-02T10:57:51;97964.44;;;30.59;29.40
50672;BME280;46021;55.882;37.654;2023-07-02T11:00:30;97968.34;;;30.81;29.27
50672;BME280;46021;55.882;37.654;2023-07-02T11:02:57;97968.22;;;31.20;29.20
50672;BME280;46021;55.882;37.654;2023-07-02T11:05:25;97968.38;;;31.06;28.97
50672;BME280;46021;55.882;37.654;2023-07-02T11:07:52;97971.78;;;31.32;29.20
50672;BME280;46021;55.882;37.654;2023-07-02T11:10:23;97981.34;;;30.91;29.01
50672;BME280;46021;55.882;37.654;2023-07-02T11:12:51;97987.31;;;30.43;29.10
50672;BME280;46021;55.882;37.654;2023-07-02T11:15:19;97981.75;;;30.38;28.86
50672;BME280;46021;55.882;37.654;2023-07-02T11:17:47;97982.09;;;30.16;29.08
50672;BME280;46021;55.882;37.654;2023-07-02T11:20:14;97979.16;;;29.34;28.96
50672;BME280;46021;55.882;37.654;2023-07-02T11:22:42;97984.81;;;28.72;30.01
50672;BME280;46021;55.882;37.654;2023-07-02T11:25:13;97980.94;;;27.87;30.49
50672;BME280;46021;55.882;37.654;2023-07-02T11:27:41;97979.03;;;27.26;31.37
50672;BME280;46021;55.882;37.654;2023-07-02T11:30:09;97986.97;;;27.47;31.29
50672;BME280;46021;55.882;37.654;2023-07-02T11:32:49;97989.84;;;26.82;31.93
50672;BME280;46021;55.882;37.654;2023-07-02T11:35:18;97999.53;;;26.19;32.85
50672;BME280;46021;55.882;37.654;2023-07-02T11:37:45;97984.56;;;26.03;32.65
50672;BME280;46021;55.882;37.654;2023-07-02T11:40:14;97993.28;;;26.12;32.92
50672;BME280;46021;55.882;37.654;2023-07-02T11:42:44;98001.13;;;26.13;32.75
50672;BME280;46021;55.882;37.654;2023-07-02T11:45:11;97995.47;;;25.86;33.03
50672;BME280;46021;55.882;37.654;2023-07-02T11:47:38;97997.50;;;25.33;34.05
50672;BME280;46021;55.882;37.654;2023-07-02T11:50:08;98002.50;;;25.13;34.92
50672;BME280;46021;55.882;37.654;2023-07-02T11:52:36;97991.94;;;25.05;34.99
50672;BME280;46021;55.882;37.654;2023-07-02T11:55:04;97994.44;;;25.51;34.86
50672;BME280;46021;55.882;37.654;2023-07-02T11:57:31;97991.81;;;25.73;34.15
50672;BME280;46021;55.882;37.654;2023-07-02T11:59:58;97993.75;;;25.79;34.03
50672;BME280;46021;55.882;37.654;2023-07-02T12:02:25;97994.25;;;25.89;34.56
50672;BME280;46021;55.882;37.654;2023-07-02T12:04:52;97995.16;;;26.11;33.75
50672;BME280;46021;55.882;37.654;2023-07-02T12:07:20;97997.41;;;26.14;33.74
50672;BME280;46021;55.882;37.654;2023-07-02T12:09:48;97991.44;;;25.76;34.69
50672;BME280;46021;55.882;37.654;2023-07-02T12:12:14;97997.81;;;25.75;34.68
50672;BME280;46021;55.882;37.654;2023-07-02T12:14:41;97994.06;;;26.05;34.77
50672;BME280;46021;55.882;37.654;2023-07-02T12:17:09;97997.63;;;26.13;35.10
50672;BME280;46021;55.882;37.654;2023-07-02T12:19:38;98002.19;;;26.40;34.45
50672;BME280;46021;55.882;37.654;2023-07-02T12:22:06;97999.41;;;26.49;35.09
50672;BME280;46021;55.882;37.654;2023-07-02T12:24:35;97993.81;;;26.65;34.27
50672;BME280;46021;55.882;37.654;2023-07-02T12:27:02;97992.78;;;26.23;33.22
50672;BME280;46021;55.882;37.654;2023-07-02T12:29:30;97998.59;;;25.90;33.27
50672;BME280;46021;55.882;37.654;2023-07-02T12:31:59;97995.19;;;25.96;32.71
50672;BME280;46021;55.882;37.654;2023-07-02T12:34:26;97990.47;;;25.47;32.95
50672;BME280;46021;55.882;37.654;2023-07-02T12:36:55;98000.34;;;25.46;33.86
50672;BME280;46021;55.882;37.654;2023-07-02T12:39:22;97997.66;;;25.46;33.84
50672;BME280;46021;55.882;37.654;2023-07-02T12:41:51;98001.31;;;25.45;33.78
50672;BME280;46021;55.882;37.654;2023-07-02T12:44:24;97990.19;;;25.27;33.83
50672;BME280;46021;55.882;37.654;2023-07-02T12:46:51;97999.50;;;24.78;34.83
50672;BME280;46021;55.882;37.654;2023-07-02T12:49:18;97989.75;;;24.70;35.12
50672;BME280;46021;55.882;37.654;2023-07-02T12:51:45;98001.47;;;24.38;35.44
50672;BME280;46021;55.882;37.654;2023-07-02T12:54:12;98004.69;;;24.33;35.41
50672;BME280;46021;55.882;37.654;2023-07-02T12:56:39;97997.38;;;24.04;35.94
50672;BME280;46021;55.882;37.654;2023-07-02T12:59:09;98006.09;;;23.98;35.73
50672;BME280;46021;55.882;37.654;2023-07-02T13:01:39;98004.19;;;23.84;36.37
50672;BME280;46021;55.882;37.654;2023-07-02T13:04:07;97998.75;;;24.00;36.48
50672;BME280;46021;55.882;37.654;2023-07-02T13:06:34;97994.56;;;23.74;35.23
50672;BME280;46021;55.882;37.654;2023-07-02T13:09:06;98013.59;;;23.55;34.91